sensor_id;sensor_type;location;lat;lon;timestamp;P1;durP1;ratioP1;P2;durP2;ratioP2
14139;SDS011;7150;53.514;9.988;2022-11-20T00:01:45;5.63;;;3.53;;
14139;SDS011;7150;53.514;9.988;2022-11-20T00:04:11;5.47;;;3.50;;
14139;SDS011;7150;53.514;9.988;2022-11-20T00:06:37;6.13;;;3.53;;
14139;SDS011;7150;53.514;9.988;2022-11-20T00:09:02;5.53;;;3.63;;
14139;SDS011;7150;53.514;9.988;2022-11-20T00:11:30;6.57;;;3.77;;
14139;SDS011;7150;53.514;9.988;2022-11-20T00:13:57;6.43;;;3.60;;
14139;SDS011;7150;53.514;9.988;2022-11-20T00:16:25;5.47;;;3.70;;
14139;SDS011;7150;53.514;9.988;2022-11-20T00:18:52;4.13;;;3.20;;
14139;SDS011;7150;53.514;9.988;2022-11-20T00:21:19;10.50;;;4.07;;
14139;SDS011;7150;53.514;9.988;2022-11-20T00:23:49;5.63;;;3.10;;
14139;SDS011;7150;53.514;9.988;2022-11-20T00:26:17;8.80;;;3.70;;
14139;SDS011;7150;53.514;9.988;2022-11-20T00:28:43;4.67;;;3.53;;
14139;SDS011;7150;53.514;9.988;2022-11-20T00:31:14;4.97;;;3.10;;
14139;SDS011;7150;53.514;9.988;2022-11-20T00:33:40;9.37;;;3.77;;
14139;SDS011;7150;53.514;9.988;2022-11-20T00:36:07;5.17;;;3.47;;
14139;SDS011;7150;53.514;9.988;2022-11-20T00:38:35;5.67;;;3.63;;
14139;SDS011;7150;53.514;9.988;2022-11-20T00:41:02;6.00;;;3.87;;
14139;SDS011;7150;53.514;9.988;2022-11-20T00:43:29;4.70;;;3.30;;
14139;SDS011;7150;53.514;9.988;2022-11-20T00:46:17;4.80;;;3.33;;
14139;SDS011;7150;53.514;9.988;2022-11-20T00:48:42;5.10;;;3.77;;
14139;SDS011;7150;53.514;9.988;2022-11-20T00:51:09;8.60;;;3.33;;
14139;SDS011;7150;53.514;9.988;2022-11-20T00:53:37;5.87;;;3.53;;
14139;SDS011;7150;53.514;9.988;2022-11-20T00:56:04;4.57;;;3.20;;
14139;SDS011;7150;53.514;9.988;2022-11-20T00:58:36;6.77;;;3.40;;
14139;SDS011;7150;53.514;9.988;2022-11-20T01:01:04;7.17;;;3.40;;
14139;SDS011;7150;53.514;9.988;2022-11-20T01:03:41;6.17;;;3.70;;
14139;SDS011;7150;53.514;9.988;2022-11-20T01:06:12;8.73;;;3.70;;
14139;SDS011;7150;53.514;9.988;2022-11-20T01:08:43;5.20;;;3.47;;
14139;SDS011;7150;53.514;9.988;2022-11-20T01:11:10;7.90;;;3.57;;
14139;SDS011;7150;53.514;9.988;2022-11-20T01:13:37;4.90;;;3.53;;
14139;SDS011;7150;53.514;9.988;2022-11-20T01:16:17;5.27;;;2.93;;
14139;SDS011;7150;53.514;9.988;2022-11-20T01:18:45;6.80;;;3.50;;
14139;SDS011;7150;53.514;9.988;2022-11-20T01:21:14;5.40;;;3.40;;
14139;SDS011;7150;53.514;9.988;2022-11-20T01:23:42;4.97;;;3.00;;
14139;SDS011;7150;53.514;9.988;2022-11-20T01:26:09;4.93;;;3.03;;
14139;SDS011;7150;53.514;9.988;2022-11-20T01:28:37;5.33;;;2.60;;
14139;SDS011;7150;53.514;9.988;2022-11-20T01:31:10;6.43;;;3.27;;
14139;SDS011;7150;53.514;9.988;2022-11-20T01:33:42;5.70;;;3.30;;
14139;SDS011;7150;53.514;9.988;2022-11-20T01:36:09;5.43;;;2.90;;
14139;SDS011;7150;53.514;9.988;2022-11-20T01:38:35;5.43;;;3.07;;
14139;SDS011;7150;53.514;9.988;2022-11-20T01:41:01;6.30;;;3.23;;
14139;SDS011;7150;53.514;9.988;2022-11-20T01:43:27;4.60;;;3.03;;
14139;SDS011;7150;53.514;9.988;2022-11-20T01:48:52;7.00;;;3.63;;
14139;SDS011;7150;53.514;9.988;2022-11-20T01:51:28;5.90;;;2.80;;
14139;SDS011;7150;53.514;9.988;2022-11-20T01:53:58;7.20;;;3.10;;
14139;SDS011;7150;53.514;9.988;2022-11-20T01:56:27;5.27;;;2.80;;
14139;SDS011;7150;53.514;9.988;2022-11-20T01:58:56;4.93;;;3.10;;
14139;SDS011;7150;53.514;9.988;2022-11-20T02:01:26;5.43;;;3.37;;
14139;SDS011;7150;53.514;9.988;2022-11-20T02:03:51;4.20;;;3.00;;
14139;SDS011;7150;53.514;9.988;2022-11-20T02:06:25;8.10;;;3.43;;
14139;SDS011;7150;53.514;9.988;2022-11-20T02:08:54;5.37;;;3.30;;
14139;SDS011;7150;53.514;9.988;2022-11-20T02:11:20;6.20;;;3.50;;
14139;SDS011;7150;53.514;9.988;2022-11-20T02:13:45;4.50;;;2.77;;
14139;SDS011;7150;53.514;9.988;2022-11-20T02:16:14;5.67;;;3.00;;
14139;SDS011;7150;53.514;9.988;2022-11-20T02:18:42;4.37;;;3.30;;
14139;SDS011;7150;53.514;9.988;2022-11-20T02:21:13;5.20;;;3.23;;
14139;SDS011;7150;53.514;9.988;2022-11-20T02:24:02;6.27;;;3.20;;
14139;SDS011;7150;53.514;9.988;2022-11-20T02:26:32;8.67;;;3.33;;
14139;SDS011;7150;53.514;9.988;2022-11-20T02:29:02;8.07;;;3.20;;
14139;SDS011;7150;53.514;9.988;2022-11-20T02:31:28;4.53;;;3.23;;
14139;SDS011;7150;53.514;9.988;2022-11-20T02:33:58;6.60;;;3.10;;
14139;SDS011;7150;53.514;9.988;2022-11-20T02:36:24;3.80;;;3.00;;
14139;SDS011;7150;53.514;9.988;2022-11-20T02:38:52;5.47;;;3.20;;
14139;SDS011;7150;53.514;9.988;2022-11-20T02:41:18;4.43;;;3.23;;
14139;SDS011;7150;53.514;9.988;2022-11-20T02:43:43;5.03;;;2.87;;
14139;SDS011;7150;53.514;9.988;2022-11-20T02:46:09;8.23;;;3.07;;
14139;SDS011;7150;53.514;9.988;2022-11-20T02:48:34;4.60;;;2.90;;
14139;SDS011;7150;53.514;9.988;2022-11-20T02:51:00;5.17;;;3.33;;
14139;SDS011;7150;53.514;9.988;2022-11-20T02:53:26;5.90;;;2.97;;
14139;SDS011;7150;53.514;9.988;2022-11-20T02:55:51;5.37;;;3.10;;
14139;SDS011;7150;53.514;9.988;2022-11-20T02:58:17;8.23;;;4.27;;
14139;SDS011;7150;53.514;9.988;2022-11-20T03:00:42;5.93;;;3.87;;
14139;SDS011;7150;53.514;9.988;2022-11-20T03:03:07;5.73;;;3.70;;
14139;SDS011;7150;53.514;9.988;2022-11-20T03:05:33;8.93;;;3.80;;
14139;SDS011;7150;53.514;9.988;2022-11-20T03:07:59;6.33;;;3.33;;
14139;SDS011;7150;53.514;9.988;2022-11-20T03:10:24;7.87;;;2.93;;
14139;SDS011;7150;53.514;9.988;2022-11-20T03:12:55;6.63;;;3.83;;
14139;SDS011;7150;53.514;9.988;2022-11-20T03:15:24;5.57;;;3.40;;
14139;SDS011;7150;53.514;9.988;2022-11-20T03:17:52;7.10;;;3.60;;
14139;SDS011;7150;53.514;9.988;2022-11-20T03:20:19;4.70;;;3.33;;
14139;SDS011;7150;53.514;9.988;2022-11-20T03:22:45;7.07;;;3.77;;
14139;SDS011;7150;53.514;9.988;2022-11-20T03:25:10;4.03;;;2.80;;
14139;SDS011;7150;53.514;9.988;2022-11-20T03:27:35;4.03;;;3.07;;
14139;SDS011;7150;53.514;9.988;2022-11-20T03:30:01;6.50;;;3.53;;
14139;SDS011;7150;53.514;9.988;2022-11-20T03:32:27;6.80;;;3.23;;
14139;SDS011;7150;53.514;9.988;2022-11-20T03:34:52;4.93;;;3.90;;
14139;SDS011;7150;53.514;9.988;2022-11-20T03:37:18;4.97;;;3.13;;
14139;SDS011;7150;53.514;9.988;2022-11-20T03:39:43;4.83;;;3.23;;
14139;SDS011;7150;53.514;9.988;2022-11-20T03:42:09;4.73;;;2.77;;
14139;SDS011;7150;53.514;9.988;2022-11-20T03:44:54;4.70;;;2.90;;
14139;SDS011;7150;53.514;9.988;2022-11-20T03:47:20;6.07;;;3.03;;
14139;SDS011;7150;53.514;9.988;2022-11-20T03:49:45;4.33;;;2.87;;
14139;SDS011;7150;53.514;9.988;2022-11-20T03:52:11;4.40;;;2.90;;
14139;SDS011;7150;53.514;9.988;2022-11-20T03:54:36;4.43;;;2.97;;
14139;SDS011;7150;53.514;9.988;2022-11-20T03:57:02;4.53;;;3.00;;
14139;SDS011;7150;53.514;9.988;2022-11-20T03:59:27;4.30;;;3.03;;
14139;SDS011;7150;53.514;9.988;2022-11-20T04:01:53;4.70;;;2.87;;
14139;SDS011;7150;53.514;9.988;2022-11-20T04:04:18;5.33;;;3.10;;
14139;SDS011;7150;53.514;9.988;2022-11-20T04:06:43;5.33;;;2.70;;
14139;SDS011;7150;53.514;9.988;2022-11-20T04:09:09;6.97;;;2.80;;
14139;SDS011;7150;53.514;9.988;2022-11-20T04:11:35;4.60;;;2.77;;
14139;SDS011;7150;53.514;9.988;2022-11-20T04:14:03;5.53;;;2.77;;
14139;SDS011;7150;53.514;9.988;2022-11-20T04:16:30;4.53;;;2.70;;
14139;SDS011;7150;53.514;9.988;2022-11-20T04:19:01;4.90;;;3.37;;
14139;SDS011;7150;53.514;9.988;2022-11-20T04:21:28;5.40;;;2.80;;
14139;SDS011;7150;53.514;9.988;2022-11-20T04:23:54;7.20;;;3.30;;
14139;SDS011;7150;53.514;9.988;2022-11-20T04:26:20;5.20;;;3.10;;
14139;SDS011;7150;53.514;9.988;2022-11-20T04:28:47;3.40;;;2.53;;
14139;SDS011;7150;53.514;9.988;2022-11-20T04:31:13;4.70;;;2.60;;
14139;SDS011;7150;53.514;9.988;2022-11-20T04:33:41;7.23;;;3.20;;
14139;SDS011;7150;53.514;9.988;2022-11-20T04:36:14;6.50;;;3.63;;
14139;SDS011;7150;53.514;9.988;2022-11-20T04:38:50;4.00;;;3.07;;
14139;SDS011;7150;53.514;9.988;2022-11-20T04:41:17;4.67;;;3.30;;
14139;SDS011;7150;53.514;9.988;2022-11-20T04:43:47;5.67;;;3.80;;
14139;SDS011;7150;53.514;9.988;2022-11-20T04:46:14;7.00;;;3.30;;
14139;SDS011;7150;53.514;9.988;2022-11-20T04:48:41;3.97;;;2.63;;
14139;SDS011;7150;53.514;9.988;2022-11-20T04:51:06;5.43;;;3.20;;
14139;SDS011;7150;53.514;9.988;2022-11-20T04:53:32;5.10;;;3.30;;
14139;SDS011;7150;53.514;9.988;2022-11-20T04:56:05;5.10;;;3.33;;
14139;SDS011;7150;53.514;9.988;2022-11-20T04:58:32;5.50;;;3.00;;
14139;SDS011;7150;53.514;9.988;2022-11-20T05:01:09;3.53;;;2.73;;
14139;SDS011;7150;53.514;9.988;2022-11-20T05:03:37;3.53;;;2.97;;
14139;SDS011;7150;53.514;9.988;2022-11-20T05:06:04;7.03;;;3.43;;
14139;SDS011;7150;53.514;9.988;2022-11-20T05:08:31;4.97;;;3.10;;
14139;SDS011;7150;53.514;9.988;2022-11-20T05:11:01;5.77;;;3.00;;
14139;SDS011;7150;53.514;9.988;2022-11-20T05:13:34;3.67;;;2.83;;
14139;SDS011;7150;53.514;9.988;2022-11-20T05:16:03;3.77;;;2.93;;
14139;SDS011;7150;53.514;9.988;2022-11-20T05:18:34;4.17;;;2.73;;
14139;SDS011;7150;53.514;9.988;2022-11-20T05:21:00;7.13;;;3.03;;
14139;SDS011;7150;53.514;9.988;2022-11-20T05:23:26;4.33;;;2.63;;
14139;SDS011;7150;53.514;9.988;2022-11-20T05:25:56;5.13;;;3.73;;
14139;SDS011;7150;53.514;9.988;2022-11-20T05:28:22;5.67;;;3.20;;
14139;SDS011;7150;53.514;9.988;2022-11-20T05:30:48;6.80;;;3.33;;
14139;SDS011;7150;53.514;9.988;2022-11-20T05:33:14;8.07;;;3.30;;
14139;SDS011;7150;53.514;9.988;2022-11-20T05:35:40;5.77;;;2.90;;
14139;SDS011;7150;53.514;9.988;2022-11-20T05:38:05;5.57;;;3.33;;
14139;SDS011;7150;53.514;9.988;2022-11-20T05:40:31;5.30;;;3.00;;
14139;SDS011;7150;53.514;9.988;2022-11-20T05:42:56;5.43;;;2.97;;
14139;SDS011;7150;53.514;9.988;2022-11-20T05:45:22;7.10;;;3.37;;
14139;SDS011;7150;53.514;9.988;2022-11-20T05:47:47;10.50;;;3.10;;
14139;SDS011;7150;53.514;9.988;2022-11-20T05:50:13;6.17;;;3.10;;
14139;SDS011;7150;53.514;9.988;2022-11-20T05:52:39;6.90;;;3.77;;
14139;SDS011;7150;53.514;9.988;2022-11-20T05:55:05;6.50;;;3.00;;
14139;SDS011;7150;53.514;9.988;2022-11-20T05:57:31;4.17;;;3.10;;
14139;SDS011;7150;53.514;9.988;2022-11-20T05:59:57;9.03;;;3.53;;
14139;SDS011;7150;53.514;9.988;2022-11-20T06:02:22;6.17;;;3.00;;
14139;SDS011;7150;53.514;9.988;2022-11-20T06:04:48;7.27;;;3.30;;
14139;SDS011;7150;53.514;9.988;2022-11-20T06:07:14;8.13;;;4.00;;
14139;SDS011;7150;53.514;9.988;2022-11-20T06:09:39;6.13;;;3.43;;
14139;SDS011;7150;53.514;9.988;2022-11-20T06:12:05;8.63;;;3.87;;
14139;SDS011;7150;53.514;9.988;2022-11-20T06:14:31;8.77;;;3.70;;
14139;SDS011;7150;53.514;9.988;2022-11-20T06:16:57;5.50;;;3.40;;
14139;SDS011;7150;53.514;9.988;2022-11-20T06:19:22;4.93;;;3.37;;
14139;SDS011;7150;53.514;9.988;2022-11-20T06:21:48;6.73;;;3.57;;
14139;SDS011;7150;53.514;9.988;2022-11-20T06:24:14;6.40;;;3.40;;
14139;SDS011;7150;53.514;9.988;2022-11-20T06:26:40;5.57;;;3.20;;
14139;SDS011;7150;53.514;9.988;2022-11-20T06:29:06;6.60;;;3.20;;
14139;SDS011;7150;53.514;9.988;2022-11-20T06:31:31;4.80;;;3.03;;
14139;SDS011;7150;53.514;9.988;2022-11-20T06:34:03;3.70;;;2.70;;
14139;SDS011;7150;53.514;9.988;2022-11-20T06:36:31;4.63;;;3.23;;
14139;SDS011;7150;53.514;9.988;2022-11-20T06:38:57;4.20;;;3.03;;
14139;SDS011;7150;53.514;9.988;2022-11-20T06:41:23;4.33;;;2.70;;
14139;SDS011;7150;53.514;9.988;2022-11-20T06:43:50;5.03;;;3.50;;
14139;SDS011;7150;53.514;9.988;2022-11-20T06:46:16;5.37;;;3.20;;
14139;SDS011;7150;53.514;9.988;2022-11-20T06:48:42;3.93;;;2.90;;
14139;SDS011;7150;53.514;9.988;2022-11-20T06:51:08;5.77;;;3.20;;
14139;SDS011;7150;53.514;9.988;2022-11-20T06:53:34;3.37;;;2.83;;
14139;SDS011;7150;53.514;9.988;2022-11-20T06:56:00;4.87;;;3.10;;
14139;SDS011;7150;53.514;9.988;2022-11-20T06:58:26;4.57;;;3.53;;
14139;SDS011;7150;53.514;9.988;2022-11-20T07:00:53;5.57;;;3.43;;
14139;SDS011;7150;53.514;9.988;2022-11-20T07:03:22;4.70;;;3.20;;
14139;SDS011;7150;53.514;9.988;2022-11-20T07:05:47;12.60;;;3.33;;
14139;SDS011;7150;53.514;9.988;2022-11-20T07:08:13;8.57;;;3.63;;
14139;SDS011;7150;53.514;9.988;2022-11-20T07:10:38;6.37;;;3.63;;
14139;SDS011;7150;53.514;9.988;2022-11-20T07:13:04;6.93;;;3.30;;
14139;SDS011;7150;53.514;9.988;2022-11-20T07:15:29;11.30;;;3.90;;
14139;SDS011;7150;53.514;9.988;2022-11-20T07:17:55;4.13;;;2.97;;
14139;SDS011;7150;53.514;9.988;2022-11-20T07:20:24;7.60;;;3.30;;
14139;SDS011;7150;53.514;9.988;2022-11-20T07:22:53;5.40;;;3.57;;
14139;SDS011;7150;53.514;9.988;2022-11-20T07:25:22;5.33;;;3.20;;
14139;SDS011;7150;53.514;9.988;2022-11-20T07:27:48;7.90;;;3.20;;
14139;SDS011;7150;53.514;9.988;2022-11-20T07:30:17;4.27;;;2.83;;
14139;SDS011;7150;53.514;9.988;2022-11-20T07:32:46;5.83;;;3.00;;
14139;SDS011;7150;53.514;9.988;2022-11-20T07:35:12;7.23;;;2.97;;
14139;SDS011;7150;53.514;9.988;2022-11-20T07:37:38;9.30;;;3.90;;
14139;SDS011;7150;53.514;9.988;2022-11-20T07:40:03;6.17;;;3.20;;
14139;SDS011;7150;53.514;9.988;2022-11-20T07:42:29;4.47;;;3.30;;
14139;SDS011;7150;53.514;9.988;2022-11-20T07:44:55;6.50;;;3.93;;
14139;SDS011;7150;53.514;9.988;2022-11-20T07:47:20;5.87;;;3.47;;
14139;SDS011;7150;53.514;9.988;2022-11-20T07:49:45;4.70;;;3.30;;
14139;SDS011;7150;53.514;9.988;2022-11-20T07:52:11;4.90;;;3.63;;
14139;SDS011;7150;53.514;9.988;2022-11-20T07:54:36;5.60;;;3.63;;
14139;SDS011;7150;53.514;9.988;2022-11-20T07:57:02;7.20;;;3.70;;
14139;SDS011;7150;53.514;9.988;2022-11-20T07:59:28;10.20;;;4.03;;
14139;SDS011;7150;53.514;9.988;2022-11-20T08:01:53;6.33;;;3.70;;
14139;SDS011;7150;53.514;9.988;2022-11-20T08:04:19;8.43;;;4.20;;
14139;SDS011;7150;53.514;9.988;2022-11-20T08:06:45;8.27;;;4.30;;
14139;SDS011;7150;53.514;9.988;2022-11-20T08:09:10;6.43;;;3.50;;
14139;SDS011;7150;53.514;9.988;2022-11-20T08:11:36;6.27;;;4.03;;
14139;SDS011;7150;53.514;9.988;2022-11-20T08:14:20;5.93;;;3.43;;
14139;SDS011;7150;53.514;9.988;2022-11-20T08:16:46;7.07;;;3.87;;
14139;SDS011;7150;53.514;9.988;2022-11-20T08:19:13;7.13;;;4.33;;
14139;SDS011;7150;53.514;9.988;2022-11-20T08:21:41;7.23;;;4.67;;
14139;SDS011;7150;53.514;9.988;2022-11-20T08:24:09;6.43;;;4.10;;
14139;SDS011;7150;53.514;9.988;2022-11-20T08:26:35;6.17;;;4.57;;
14139;SDS011;7150;53.514;9.988;2022-11-20T08:29:01;7.33;;;4.63;;
14139;SDS011;7150;53.514;9.988;2022-11-20T08:31:28;6.97;;;4.23;;
14139;SDS011;7150;53.514;9.988;2022-11-20T08:33:54;7.67;;;4.80;;
14139;SDS011;7150;53.514;9.988;2022-11-20T08:36:20;7.00;;;3.97;;
14139;SDS011;7150;53.514;9.988;2022-11-20T08:38:50;5.77;;;4.00;;
14139;SDS011;7150;53.514;9.988;2022-11-20T08:41:17;5.33;;;3.97;;
14139;SDS011;7150;53.514;9.988;2022-11-20T08:43:49;6.13;;;3.90;;
14139;SDS011;7150;53.514;9.988;2022-11-20T08:46:15;4.83;;;3.43;;
14139;SDS011;7150;53.514;9.988;2022-11-20T08:48:41;5.93;;;3.67;;
14139;SDS011;7150;53.514;9.988;2022-11-20T08:51:07;5.20;;;3.93;;
14139;SDS011;7150;53.514;9.988;2022-11-20T08:53:33;7.80;;;4.07;;
14139;SDS011;7150;53.514;9.988;2022-11-20T08:55:59;4.03;;;3.27;;
14139;SDS011;7150;53.514;9.988;2022-11-20T08:58:25;6.30;;;3.80;;
14139;SDS011;7150;53.514;9.988;2022-11-20T09:00:50;4.47;;;3.60;;
14139;SDS011;7150;53.514;9.988;2022-11-20T09:03:16;4.33;;;3.40;;
14139;SDS011;7150;53.514;9.988;2022-11-20T09:05:41;7.90;;;3.33;;
14139;SDS011;7150;53.514;9.988;2022-11-20T09:08:07;5.07;;;3.30;;
14139;SDS011;7150;53.514;9.988;2022-11-20T09:10:33;4.03;;;2.77;;
14139;SDS011;7150;53.514;9.988;2022-11-20T09:12:59;5.43;;;3.33;;
14139;SDS011;7150;53.514;9.988;2022-11-20T09:15:25;4.67;;;3.23;;
14139;SDS011;7150;53.514;9.988;2022-11-20T09:17:54;3.40;;;2.70;;
14139;SDS011;7150;53.514;9.988;2022-11-20T09:20:26;4.60;;;2.70;;
14139;SDS011;7150;53.514;9.988;2022-11-20T09:22:53;3.90;;;2.83;;
14139;SDS011;7150;53.514;9.988;2022-11-20T09:25:19;2.90;;;2.60;;
14139;SDS011;7150;53.514;9.988;2022-11-20T09:27:45;4.03;;;2.50;;
14139;SDS011;7150;53.514;9.988;2022-11-20T09:30:12;3.73;;;2.37;;
14139;SDS011;7150;53.514;9.988;2022-11-20T09:32:40;3.33;;;2.23;;
14139;SDS011;7150;53.514;9.988;2022-11-20T09:35:06;3.70;;;2.37;;
14139;SDS011;7150;53.514;9.988;2022-11-20T09:37:33;3.63;;;2.70;;
14139;SDS011;7150;53.514;9.988;2022-11-20T09:39:58;3.17;;;2.27;;
14139;SDS011;7150;53.514;9.988;2022-11-20T09:47:53;5.70;;;2.83;;
14139;SDS011;7150;53.514;9.988;2022-11-20T09:50:51;4.70;;;3.43;;
14139;SDS011;7150;53.514;9.988;2022-11-20T09:53:34;4.73;;;3.10;;
14139;SDS011;7150;53.514;9.988;2022-11-20T09:56:23;3.77;;;2.90;;
14139;SDS011;7150;53.514;9.988;2022-11-20T09:58:51;3.73;;;2.83;;
14139;SDS011;7150;53.514;9.988;2022-11-20T10:01:19;4.77;;;2.37;;
14139;SDS011;7150;53.514;9.988;2022-11-20T10:06:24;4.03;;;2.60;;
14139;SDS011;7150;53.514;9.988;2022-11-20T10:11:59;4.07;;;2.50;;
14139;SDS011;7150;53.514;9.988;2022-11-20T10:14:50;5.97;;;2.50;;
14139;SDS011;7150;53.514;9.988;2022-11-20T10:17:42;3.90;;;2.17;;
14139;SDS011;7150;53.514;9.988;2022-11-20T10:23:50;3.97;;;2.33;;
14139;SDS011;7150;53.514;9.988;2022-11-20T10:26:22;3.40;;;2.47;;
14139;SDS011;7150;53.514;9.988;2022-11-20T10:31:36;4.60;;;2.60;;
14139;SDS011;7150;53.514;9.988;2022-11-20T10:34:05;2.37;;;1.90;;
14139;SDS011;7150;53.514;9.988;2022-11-20T10:36:39;2.30;;;2.00;;
14139;SDS011;7150;53.514;9.988;2022-11-20T10:41:43;2.80;;;1.93;;
14139;SDS011;7150;53.514;9.988;2022-11-20T10:44:15;2.97;;;1.90;;
14139;SDS011;7150;53.514;9.988;2022-11-20T10:47:04;4.23;;;2.20;;
14139;SDS011;7150;53.514;9.988;2022-11-20T10:49:35;2.43;;;1.70;;
14139;SDS011;7150;53.514;9.988;2022-11-20T10:52:13;3.00;;;2.10;;
14139;SDS011;7150;53.514;9.988;2022-11-20T10:57:47;3.37;;;2.20;;
14139;SDS011;7150;53.514;9.988;2022-11-20T11:00:20;2.87;;;2.33;;
14139;SDS011;7150;53.514;9.988;2022-11-20T11:02:47;3.17;;;2.87;;
14139;SDS011;7150;53.514;9.988;2022-11-20T11:05:25;3.57;;;2.30;;
14139;SDS011;7150;53.514;9.988;2022-11-20T11:07:58;3.97;;;2.30;;
14139;SDS011;7150;53.514;9.988;2022-11-20T11:10:39;3.07;;;2.53;;
14139;SDS011;7150;53.514;9.988;2022-11-20T11:13:28;3.30;;;2.40;;
14139;SDS011;7150;53.514;9.988;2022-11-20T11:15:54;3.80;;;2.30;;
14139;SDS011;7150;53.514;9.988;2022-11-20T11:18:27;5.50;;;2.60;;
14139;SDS011;7150;53.514;9.988;2022-11-20T11:20:55;3.43;;;2.40;;
14139;SDS011;7150;53.514;9.988;2022-11-20T11:23:30;4.90;;;3.10;;
14139;SDS011;7150;53.514;9.988;2022-11-20T11:25:57;9.13;;;4.70;;
14139;SDS011;7150;53.514;9.988;2022-11-20T11:28:24;9.50;;;5.07;;
14139;SDS011;7150;53.514;9.988;2022-11-20T11:30:52;5.20;;;3.37;;
14139;SDS011;7150;53.514;9.988;2022-11-20T11:33:19;4.63;;;2.87;;
14139;SDS011;7150;53.514;9.988;2022-11-20T11:35:47;4.60;;;2.83;;
14139;SDS011;7150;53.514;9.988;2022-11-20T11:38:16;4.33;;;2.57;;
14139;SDS011;7150;53.514;9.988;2022-11-20T11:40:46;4.67;;;3.30;;
14139;SDS011;7150;53.514;9.988;2022-11-20T11:51:38;3.03;;;2.60;;
14139;SDS011;7150;53.514;9.988;2022-11-20T11:54:15;5.33;;;2.63;;
14139;SDS011;7150;53.514;9.988;2022-11-20T11:56:47;3.57;;;2.40;;
14139;SDS011;7150;53.514;9.988;2022-11-20T11:59:16;3.03;;;2.53;;
14139;SDS011;7150;53.514;9.988;2022-11-20T12:01:56;8.97;;;3.50;;
14139;SDS011;7150;53.514;9.988;2022-11-20T12:04:50;4.17;;;2.63;;
14139;SDS011;7150;53.514;9.988;2022-11-20T12:07:24;3.63;;;2.80;;
14139;SDS011;7150;53.514;9.988;2022-11-20T12:10:02;3.60;;;2.73;;
14139;SDS011;7150;53.514;9.988;2022-11-20T12:12:30;6.37;;;3.43;;
14139;SDS011;7150;53.514;9.988;2022-11-20T12:15:03;14.27;;;7.17;;
14139;SDS011;7150;53.514;9.988;2022-11-20T12:17:34;5.67;;;3.73;;
14139;SDS011;7150;53.514;9.988;2022-11-20T12:19:59;8.23;;;3.77;;
14139;SDS011;7150;53.514;9.988;2022-11-20T12:25:19;4.00;;;2.80;;
14139;SDS011;7150;53.514;9.988;2022-11-20T12:31:35;3.20;;;2.70;;
14139;SDS011;7150;53.514;9.988;2022-11-20T12:39:17;5.53;;;2.97;;
14139;SDS011;7150;53.514;9.988;2022-11-20T12:42:05;4.10;;;2.60;;
14139;SDS011;7150;53.514;9.988;2022-11-20T12:45:43;3.30;;;2.50;;
14139;SDS011;7150;53.514;9.988;2022-11-20T13:02:37;3.97;;;2.50;;
14139;SDS011;7150;53.514;9.988;2022-11-20T13:07:45;2.23;;;1.50;;
14139;SDS011;7150;53.514;9.988;2022-11-20T13:16:08;2.77;;;2.10;;
14139;SDS011;7150;53.514;9.988;2022-11-20T13:18:41;6.30;;;3.50;;
14139;SDS011;7150;53.514;9.988;2022-11-20T13:21:22;11.20;;;5.67;;
14139;SDS011;7150;53.514;9.988;2022-11-20T13:24:20;9.10;;;5.23;;
14139;SDS011;7150;53.514;9.988;2022-11-20T13:26:48;7.50;;;4.30;;
14139;SDS011;7150;53.514;9.988;2022-11-20T13:29:25;4.23;;;2.70;;
14139;SDS011;7150;53.514;9.988;2022-11-20T13:32:00;3.33;;;2.43;;
14139;SDS011;7150;53.514;9.988;2022-11-20T13:34:59;4.93;;;2.20;;
14139;SDS011;7150;53.514;9.988;2022-11-20T13:37:35;2.10;;;1.90;;
14139;SDS011;7150;53.514;9.988;2022-11-20T13:42:38;9.10;;;4.73;;
14139;SDS011;7150;53.514;9.988;2022-11-20T13:45:10;4.13;;;3.03;;
14139;SDS011;7150;53.514;9.988;2022-11-20T13:47:50;3.00;;;2.10;;
14139;SDS011;7150;53.514;9.988;2022-11-20T13:50:17;3.23;;;2.47;;
14139;SDS011;7150;53.514;9.988;2022-11-20T14:01:05;3.10;;;2.17;;
14139;SDS011;7150;53.514;9.988;2022-11-20T14:03:41;3.07;;;2.00;;
14139;SDS011;7150;53.514;9.988;2022-11-20T14:06:23;2.10;;;1.63;;
14139;SDS011;7150;53.514;9.988;2022-11-20T14:08:54;2.63;;;2.17;;
14139;SDS011;7150;53.514;9.988;2022-11-20T14:11:22;3.50;;;1.80;;
14139;SDS011;7150;53.514;9.988;2022-11-20T14:14:02;3.80;;;2.33;;
14139;SDS011;7150;53.514;9.988;2022-11-20T14:16:36;2.60;;;1.70;;
14139;SDS011;7150;53.514;9.988;2022-11-20T14:21:49;3.00;;;1.83;;
14139;SDS011;7150;53.514;9.988;2022-11-20T14:24:21;2.70;;;1.90;;
14139;SDS011;7150;53.514;9.988;2022-11-20T14:26:49;2.47;;;1.93;;
14139;SDS011;7150;53.514;9.988;2022-11-20T14:29:19;2.90;;;1.90;;
14139;SDS011;7150;53.514;9.988;2022-11-20T14:31:58;2.10;;;1.87;;
14139;SDS011;7150;53.514;9.988;2022-11-20T14:34:24;2.50;;;2.00;;
14139;SDS011;7150;53.514;9.988;2022-11-20T14:36:53;2.30;;;1.80;;
14139;SDS011;7150;53.514;9.988;2022-11-20T14:39:29;2.77;;;2.17;;
14139;SDS011;7150;53.514;9.988;2022-11-20T14:41:57;3.00;;;2.17;;
14139;SDS011;7150;53.514;9.988;2022-11-20T14:44:40;6.30;;;2.97;;
14139;SDS011;7150;53.514;9.988;2022-11-20T14:47:08;3.80;;;2.30;;
14139;SDS011;7150;53.514;9.988;2022-11-20T14:49:37;3.37;;;2.03;;
14139;SDS011;7150;53.514;9.988;2022-11-20T14:52:17;5.37;;;3.00;;
14139;SDS011;7150;53.514;9.988;2022-11-20T14:54:50;2.80;;;2.13;;
14139;SDS011;7150;53.514;9.988;2022-11-20T14:57:25;4.77;;;2.43;;
14139;SDS011;7150;53.514;9.988;2022-11-20T15:02:38;6.50;;;3.63;;
14139;SDS011;7150;53.514;9.988;2022-11-20T15:05:08;4.83;;;2.80;;
14139;SDS011;7150;53.514;9.988;2022-11-20T15:07:37;3.73;;;2.40;;
14139;SDS011;7150;53.514;9.988;2022-11-20T15:12:54;2.83;;;2.17;;
14139;SDS011;7150;53.514;9.988;2022-11-20T15:15:25;4.27;;;2.33;;
14139;SDS011;7150;53.514;9.988;2022-11-20T15:18:00;2.97;;;2.10;;
14139;SDS011;7150;53.514;9.988;2022-11-20T15:20:27;3.33;;;2.50;;
14139;SDS011;7150;53.514;9.988;2022-11-20T15:22:54;3.40;;;2.30;;
14139;SDS011;7150;53.514;9.988;2022-11-20T15:25:20;2.50;;;1.67;;
14139;SDS011;7150;53.514;9.988;2022-11-20T15:27:54;5.63;;;2.77;;
14139;SDS011;7150;53.514;9.988;2022-11-20T15:30:21;3.63;;;2.27;;
14139;SDS011;7150;53.514;9.988;2022-11-20T15:32:48;4.23;;;2.80;;
14139;SDS011;7150;53.514;9.988;2022-11-20T15:35:14;6.13;;;2.57;;
14139;SDS011;7150;53.514;9.988;2022-11-20T15:37:40;3.20;;;2.47;;
14139;SDS011;7150;53.514;9.988;2022-11-20T15:40:07;2.40;;;2.20;;
14139;SDS011;7150;53.514;9.988;2022-11-20T15:42:33;3.17;;;2.20;;
14139;SDS011;7150;53.514;9.988;2022-11-20T15:44:59;3.57;;;3.03;;
14139;SDS011;7150;53.514;9.988;2022-11-20T15:47:27;4.53;;;3.00;;
14139;SDS011;7150;53.514;9.988;2022-11-20T15:49:54;5.20;;;2.70;;
14139;SDS011;7150;53.514;9.988;2022-11-20T15:52:20;2.93;;;2.30;;
14139;SDS011;7150;53.514;9.988;2022-11-20T15:54:46;4.73;;;2.57;;
14139;SDS011;7150;53.514;9.988;2022-11-20T15:57:12;4.30;;;2.87;;
14139;SDS011;7150;53.514;9.988;2022-11-20T15:59:38;3.20;;;2.53;;
14139;SDS011;7150;53.514;9.988;2022-11-20T16:02:12;4.97;;;2.93;;
14139;SDS011;7150;53.514;9.988;2022-11-20T16:04:41;7.90;;;3.10;;
14139;SDS011;7150;53.514;9.988;2022-11-20T16:07:07;3.77;;;2.53;;
14139;SDS011;7150;53.514;9.988;2022-11-20T16:09:32;3.97;;;2.53;;
14139;SDS011;7150;53.514;9.988;2022-11-20T16:11:58;3.67;;;2.73;;
14139;SDS011;7150;53.514;9.988;2022-11-20T16:14:24;5.03;;;2.33;;
14139;SDS011;7150;53.514;9.988;2022-11-20T16:17:11;5.53;;;2.57;;
14139;SDS011;7150;53.514;9.988;2022-11-20T16:19:37;3.97;;;2.53;;
14139;SDS011;7150;53.514;9.988;2022-11-20T16:22:03;4.03;;;2.80;;
14139;SDS011;7150;53.514;9.988;2022-11-20T16:24:28;3.80;;;2.63;;
14139;SDS011;7150;53.514;9.988;2022-11-20T16:26:54;4.23;;;2.53;;
14139;SDS011;7150;53.514;9.988;2022-11-20T16:29:20;6.70;;;2.87;;
14139;SDS011;7150;53.514;9.988;2022-11-20T16:31:46;4.37;;;3.10;;
14139;SDS011;7150;53.514;9.988;2022-11-20T16:34:12;4.57;;;2.87;;
14139;SDS011;7150;53.514;9.988;2022-11-20T16:36:40;3.77;;;2.37;;
14139;SDS011;7150;53.514;9.988;2022-11-20T16:39:08;4.37;;;2.70;;
14139;SDS011;7150;53.514;9.988;2022-11-20T16:41:34;4.27;;;2.87;;